createdAt,value
2018-11-07T00:00:39.130Z,100872.00
2018-11-07T00:03:08.503Z,100867.00
2018-11-07T00:05:37.836Z,100861.00
2018-11-07T00:08:07.380Z,100860.00
2018-11-07T00:10:36.587Z,100858.00
2018-11-07T00:13:06.243Z,100868.00
2018-11-07T00:15:35.909Z,100872.00
2018-11-07T00:18:05.608Z,100872.00
2018-11-07T00:20:34.972Z,100865.00
2018-11-07T00:23:04.400Z,100857.00
2018-11-07T00:25:33.743Z,100854.00
2018-11-07T00:28:03.059Z,100852.00
2018-11-07T00:30:32.384Z,100853.00
2018-11-07T00:33:02.057Z,100844.00
2018-11-07T00:35:32.331Z,100843.00
2018-11-07T00:38:02.331Z,100846.00
2018-11-07T00:40:32.290Z,100852.00
2018-11-07T00:43:02.406Z,100847.00
2018-11-07T00:45:32.386Z,100842.00
2018-11-07T00:48:02.436Z,100840.00
2018-11-07T00:50:32.338Z,100836.00
2018-11-07T00:53:02.361Z,100833.00
2018-11-07T00:55:32.485Z,100820.00
2018-11-07T00:58:02.584Z,100815.00
2018-11-07T01:00:32.492Z,100810.00
2018-11-07T01:03:02.536Z,100807.00
2018-11-07T01:05:32.606Z,100804.00
2018-11-07T01:08:02.600Z,100798.00
2018-11-07T01:10:32.625Z,100806.00
2018-11-07T01:13:02.759Z,100810.00
2018-11-07T01:15:32.820Z,100807.00
2018-11-07T01:18:02.800Z,100806.00
2018-11-07T01:20:32.670Z,100802.00
2018-11-07T01:23:02.849Z,100805.00
2018-11-07T01:25:32.833Z,100808.00
2018-11-07T01:28:02.920Z,100819.00
2018-11-07T01:30:32.819Z,100820.00
2018-11-07T01:33:02.962Z,100819.00
2018-11-07T01:35:32.952Z,100815.00
2018-11-07T01:38:02.981Z,100810.00
2018-11-07T01:40:32.983Z,100816.00
2018-11-07T01:43:02.935Z,100807.00
2018-11-07T01:45:33.034Z,100804.00
2018-11-07T01:48:03.126Z,100802.00
2018-11-07T01:50:33.126Z,100791.00
2018-11-07T01:53:03.198Z,100786.00
2018-11-07T01:55:33.091Z,100782.00
2018-11-07T01:58:03.139Z,100779.00
2018-11-07T02:00:33.160Z,100785.00
2018-11-07T02:03:03.177Z,100786.00
2018-11-07T02:05:33.185Z,100782.00
2018-11-07T02:08:03.213Z,100784.00
2018-11-07T02:10:33.209Z,100788.00
2018-11-07T02:13:03.215Z,100778.00
2018-11-07T02:15:33.302Z,100787.00
2018-11-07T02:18:03.345Z,100789.00
2018-11-07T02:20:33.405Z,100791.00
2018-11-07T02:23:03.395Z,100781.00
2018-11-07T02:25:33.441Z,100784.00
2018-11-07T02:28:02.712Z,100783.00
2018-11-07T02:30:32.159Z,100775.00
2018-11-07T02:33:01.454Z,100778.00
2018-11-07T02:35:30.765Z,100769.00
2018-11-07T02:38:00.064Z,100779.00
2018-11-07T02:40:29.377Z,100780.00
2018-11-07T02:42:58.794Z,100767.00
2018-11-07T02:45:28.089Z,100764.00
2018-11-07T02:47:57.451Z,100768.00
2018-11-07T02:50:26.812Z,100778.00
2018-11-07T02:52:56.192Z,100777.00
2018-11-07T02:55:25.569Z,100780.00
2018-11-07T02:57:54.939Z,100786.00
2018-11-07T03:00:24.246Z,100787.00
2018-11-07T03:02:53.521Z,100786.00
2018-11-07T03:05:22.856Z,100786.00
2018-11-07T03:07:52.139Z,100789.00
2018-11-07T03:10:21.546Z,100794.00
2018-11-07T03:12:50.924Z,100799.00
2018-11-07T03:15:20.245Z,100800.00
2018-11-07T03:17:49.673Z,100799.00
2018-11-07T03:20:19.054Z,100798.00
2018-11-07T03:22:48.443Z,100800.00
2018-11-07T03:25:17.827Z,100801.00
2018-11-07T03:27:47.133Z,100794.00
2018-11-07T03:30:16.419Z,100799.00
2018-11-07T03:32:45.756Z,100808.00
2018-11-07T03:35:20.256Z,100803.00
2018-11-07T03:37:49.593Z,100809.00
2018-11-07T03:40:18.972Z,100810.00
2018-11-07T03:42:48.279Z,100807.00
2018-11-07T03:45:17.679Z,100808.00
2018-11-07T03:47:47.006Z,100806.00
2018-11-07T03:50:16.349Z,100807.00
2018-11-07T03:52:45.703Z,100816.00
2018-11-07T03:55:14.992Z,100820.00
2018-11-07T03:57:44.346Z,100815.00
2018-11-07T04:00:13.690Z,100818.00
2018-11-07T04:02:43.009Z,100819.00
2018-11-07T04:05:12.620Z,100819.00
2018-11-07T04:07:42.857Z,100822.00
2018-11-07T04:10:12.206Z,100823.00
2018-11-07T04:12:41.532Z,100820.00
2018-11-07T04:15:10.908Z,100821.00
2018-11-07T04:17:40.256Z,100822.00
2018-11-07T04:20:10.361Z,100826.00
2018-11-07T04:22:40.185Z,100824.00
2018-11-07T04:25:10.075Z,100825.00
2018-11-07T04:27:39.466Z,100826.00
2018-11-07T04:30:11.436Z,100822.00
2018-11-07T04:32:41.044Z,100813.00
2018-11-07T04:35:12.438Z,100819.00
2018-11-07T04:37:42.506Z,100814.00
2018-11-07T04:40:12.965Z,100825.00
2018-11-07T04:42:42.584Z,100829.00
2018-11-07T04:45:11.890Z,100826.00
2018-11-07T04:47:41.197Z,100826.00
2018-11-07T04:50:11.638Z,100828.00
2018-11-07T04:52:41.092Z,100836.00
2018-11-07T04:55:10.508Z,100838.00
2018-11-07T04:57:39.833Z,100836.00
2018-11-07T05:00:11.345Z,100830.00
2018-11-07T05:02:41.127Z,100830.00
2018-11-07T05:05:10.536Z,100834.00
2018-11-07T05:07:39.916Z,100821.00
2018-11-07T05:10:10.571Z,100826.00
2018-11-07T05:12:40.325Z,100819.00
2018-11-07T05:15:10.281Z,100824.00
2018-11-07T05:17:39.738Z,100828.00
2018-11-07T05:20:10.856Z,100820.00
2018-11-07T05:22:40.243Z,100817.00
2018-11-07T05:25:10.378Z,100828.00
2018-11-07T05:27:40.013Z,100834.00
2018-11-07T05:30:10.585Z,100830.00
2018-11-07T05:32:40.286Z,100828.00
2018-11-07T05:35:09.925Z,100834.00
2018-11-07T05:37:39.331Z,100836.00
2018-11-07T05:40:09.992Z,100837.00
2018-11-07T05:42:39.613Z,100842.00
2018-11-07T05:45:09.672Z,100847.00
2018-11-07T05:47:39.566Z,100848.00
2018-11-07T05:50:10.196Z,100838.00
2018-11-07T05:52:40.042Z,100835.00
2018-11-07T05:55:10.041Z,100832.00
2018-11-07T05:57:39.731Z,100835.00
2018-11-07T06:00:10.881Z,100843.00
2018-11-07T06:02:40.774Z,100841.00
2018-11-07T06:05:11.401Z,100844.00
2018-11-07T06:07:41.186Z,100859.00
2018-11-07T06:10:12.715Z,100868.00
2018-11-07T06:12:42.326Z,100871.00
2018-11-07T06:15:12.372Z,100864.00
2018-11-07T06:17:41.653Z,100869.00
2018-11-07T06:20:11.865Z,100870.00
2018-11-07T06:22:41.202Z,100877.00
2018-11-07T06:25:10.576Z,100884.00
2018-11-07T06:27:39.937Z,100883.00
2018-11-07T06:30:11.631Z,100887.00
2018-11-07T06:32:42.348Z,100883.00
2018-11-07T06:35:11.997Z,100893.00
2018-11-07T06:37:41.378Z,100896.00
2018-11-07T06:40:11.779Z,100899.00
2018-11-07T06:42:41.162Z,100898.00
2018-11-07T06:45:11.206Z,100896.00
2018-11-07T06:47:40.589Z,100888.00
2018-11-07T06:50:13.135Z,100901.00
2018-11-07T06:52:42.676Z,100908.00
2018-11-07T06:55:12.682Z,100909.00
2018-11-07T06:57:41.989Z,100904.00
2018-11-07T07:00:16.386Z,100906.00
2018-11-07T07:02:46.799Z,100908.00
2018-11-07T07:05:16.341Z,100910.00
2018-11-07T07:07:45.671Z,100908.00
2018-11-07T07:10:16.360Z,100911.00
2018-11-07T07:12:45.658Z,100913.00
2018-11-07T07:15:16.098Z,100913.00
2018-11-07T07:17:45.480Z,100921.00
2018-11-07T07:20:17.135Z,100921.00
2018-11-07T07:22:47.191Z,100917.00
2018-11-07T07:25:16.546Z,100917.00
2018-11-07T07:27:46.744Z,100922.00
2018-11-07T07:30:17.454Z,100918.00
2018-11-07T07:32:47.359Z,100919.00
2018-11-07T07:35:17.043Z,100922.00
2018-11-07T07:37:46.420Z,100916.00
2018-11-07T07:40:16.853Z,100924.00
2018-11-07T07:42:46.792Z,100932.00
2018-11-07T07:45:18.469Z,100930.00
2018-11-07T07:47:47.909Z,100922.00
2018-11-07T07:50:18.560Z,100926.00
2018-11-07T07:52:47.942Z,100934.00
2018-11-07T07:55:17.264Z,100934.00
2018-11-07T07:57:46.609Z,100931.00
2018-11-07T08:00:20.010Z,100924.00
2018-11-07T08:02:50.601Z,100924.00
2018-11-07T08:05:20.018Z,100919.00
2018-11-07T08:07:49.555Z,100918.00
2018-11-07T08:10:21.158Z,100915.00
2018-11-07T08:12:51.004Z,100934.00
2018-11-07T08:15:20.494Z,100948.00
2018-11-07T08:17:49.968Z,100959.00
2018-11-07T08:20:19.560Z,100949.00
2018-11-07T08:22:49.490Z,100950.00
2018-11-07T08:25:18.861Z,100954.00
2018-11-07T08:27:48.294Z,100954.00
2018-11-07T08:30:19.170Z,100954.00
2018-11-07T08:32:48.511Z,100941.00
2018-11-07T08:35:17.839Z,100951.00
2018-11-07T08:37:47.656Z,100952.00
2018-11-07T08:40:18.731Z,100955.00
2018-11-07T08:42:48.438Z,100958.00
2018-11-07T08:45:17.771Z,100965.00
2018-11-07T08:47:47.787Z,100962.00
2018-11-07T08:50:18.491Z,100964.00
2018-11-07T08:52:48.347Z,100952.00
2018-11-07T08:55:19.049Z,100948.00
2018-11-07T08:57:48.467Z,100950.00
2018-11-07T09:00:19.248Z,100956.00
2018-11-07T09:02:48.586Z,100964.00
2018-11-07T09:05:18.807Z,100963.00
2018-11-07T09:07:48.638Z,100965.00
2018-11-07T09:10:19.459Z,100963.00
2018-11-07T09:12:48.770Z,100958.00
2018-11-07T09:15:19.419Z,100959.00
2018-11-07T09:17:48.797Z,100956.00
2018-11-07T09:20:19.381Z,100954.00
2018-11-07T09:22:48.758Z,100957.00
2018-11-07T09:25:18.186Z,100958.00
2018-11-07T09:27:47.870Z,100956.00
2018-11-07T09:30:19.337Z,100955.00
2018-11-07T09:32:48.743Z,100952.00
2018-11-07T09:35:18.411Z,100957.00
2018-11-07T09:37:47.869Z,100966.00
2018-11-07T09:40:18.469Z,100969.00
2018-11-07T09:42:48.437Z,100962.00
2018-11-07T09:45:19.352Z,100961.00
2018-11-07T09:47:49.117Z,100970.00
2018-11-07T09:50:19.191Z,100971.00
2018-11-07T09:52:48.522Z,100974.00
2018-11-07T09:55:19.042Z,100974.00
2018-11-07T09:57:48.515Z,100970.00
2018-11-07T10:00:19.108Z,100971.00
2018-11-07T10:02:48.544Z,100972.00
2018-11-07T10:05:19.236Z,100968.00
2018-11-07T10:07:48.649Z,100980.00
2018-11-07T10:10:21.033Z,100978.00
2018-11-07T10:12:50.638Z,100983.00
2018-11-07T10:15:20.550Z,100977.00
2018-11-07T10:17:49.892Z,100982.00
2018-11-07T10:20:20.532Z,100975.00
2018-11-07T10:22:50.209Z,100977.00
2018-11-07T10:25:19.887Z,100977.00
2018-11-07T10:27:49.367Z,100973.00
2018-11-07T10:30:19.759Z,100974.00
2018-11-07T10:32:49.873Z,100975.00
2018-11-07T10:35:19.284Z,100968.00
2018-11-07T10:37:48.822Z,100970.00
2018-11-07T10:40:19.649Z,100980.00
2018-11-07T10:42:49.353Z,100983.00
2018-11-07T10:45:18.730Z,100975.00
2018-11-07T10:47:48.663Z,100980.00
2018-11-07T10:50:19.049Z,100975.00
2018-11-07T10:52:48.685Z,100971.00
2018-11-07T10:55:18.427Z,100977.00
2018-11-07T10:57:47.724Z,100978.00
2018-11-07T11:00:22.723Z,100977.00
2018-11-07T11:02:57.033Z,100982.00
2018-11-07T11:05:26.593Z,100985.00
2018-11-07T11:07:55.898Z,100988.00
2018-11-07T11:10:25.223Z,100986.00
2018-11-07T11:12:54.612Z,100989.00
2018-11-07T11:15:23.964Z,100986.00
2018-11-07T11:17:53.353Z,100990.00
2018-11-07T11:20:22.697Z,100983.00
2018-11-07T11:22:52.089Z,100982.00
2018-11-07T11:25:21.464Z,100987.00
2018-11-07T11:27:51.024Z,100992.00
2018-11-07T11:30:20.364Z,100993.00
2018-11-07T11:32:49.700Z,100991.00
2018-11-07T11:35:19.188Z,100994.00
2018-11-07T11:37:48.390Z,100991.00
2018-11-07T11:40:17.773Z,100990.00
2018-11-07T11:42:47.170Z,100991.00
2018-11-07T11:45:17.211Z,100987.00
2018-11-07T11:47:46.969Z,100984.00
2018-11-07T11:50:17.574Z,100981.00
2018-11-07T11:52:47.839Z,100983.00
2018-11-07T11:55:17.265Z,100985.00
2018-11-07T11:57:47.024Z,100989.00
2018-11-07T12:00:18.294Z,100979.00
2018-11-07T12:02:47.831Z,100976.00
2018-11-07T12:05:18.288Z,100971.00
2018-11-07T12:07:47.737Z,100970.00
2018-11-07T12:10:20.387Z,100974.00
2018-11-07T12:12:51.021Z,100973.00
2018-11-07T12:15:21.659Z,100969.00
2018-11-07T12:17:51.234Z,100964.00
2018-11-07T12:20:20.639Z,100964.00
2018-11-07T12:22:50.273Z,100959.00
2018-11-07T12:25:20.490Z,100966.00
2018-11-07T12:27:49.832Z,100964.00
2018-11-07T12:30:20.434Z,100965.00
2018-11-07T12:32:51.068Z,100966.00
2018-11-07T12:35:20.859Z,100964.00
2018-11-07T12:37:50.291Z,100963.00
2018-11-07T12:40:20.169Z,100969.00
2018-11-07T12:42:49.609Z,100969.00
2018-11-07T12:45:18.973Z,100964.00
2018-11-07T12:47:48.301Z,100968.00
2018-11-07T12:50:19.284Z,100964.00
2018-11-07T12:52:48.706Z,100965.00
2018-11-07T12:55:18.691Z,100968.00
2018-11-07T12:57:48.107Z,100972.00
2018-11-07T13:00:25.498Z,100966.00
2018-11-07T13:02:55.116Z,100968.00
2018-11-07T13:05:25.409Z,100961.00
2018-11-07T13:07:55.650Z,100969.00
2018-11-07T13:10:25.151Z,100969.00
2018-11-07T13:12:54.919Z,100970.00
2018-11-07T13:15:24.320Z,100968.00
2018-11-07T13:17:53.985Z,100974.00
2018-11-07T13:20:24.753Z,100976.00
2018-11-07T13:22:54.732Z,100975.00
2018-11-07T13:25:24.844Z,100979.00
2018-11-07T13:27:54.296Z,100979.00
2018-11-07T13:30:30.290Z,100978.00
2018-11-07T13:32:59.675Z,100977.00
2018-11-07T13:35:28.991Z,100983.00
2018-11-07T13:37:58.527Z,100979.00
2018-11-07T13:40:27.761Z,100977.00
2018-11-07T13:42:57.101Z,100980.00
2018-11-07T13:45:26.518Z,100981.00
2018-11-07T13:47:55.918Z,100985.00
2018-11-07T13:50:25.373Z,100983.00
2018-11-07T13:52:54.793Z,100984.00
2018-11-07T13:55:30.669Z,100979.00
2018-11-07T13:57:59.990Z,100974.00
2018-11-07T14:00:29.381Z,100976.00
2018-11-07T14:02:58.685Z,100975.00
2018-11-07T14:05:28.102Z,100976.00
2018-11-07T14:07:57.386Z,100978.00
2018-11-07T14:10:27.019Z,100979.00
2018-11-07T14:12:56.409Z,100973.00
2018-11-07T14:15:25.860Z,100975.00
2018-11-07T14:17:55.168Z,100980.00
2018-11-07T14:20:24.538Z,100981.00
2018-11-07T14:22:53.817Z,100983.00
2018-11-07T14:25:23.187Z,100982.00
2018-11-07T14:27:52.825Z,100987.00
2018-11-07T14:30:21.970Z,100992.00
2018-11-07T14:32:55.008Z,100990.00
2018-11-07T14:35:24.317Z,100994.00
2018-11-07T14:37:54.414Z,100997.00
2018-11-07T14:40:23.816Z,101001.00
2018-11-07T14:42:53.177Z,101004.00
2018-11-07T14:45:22.550Z,101005.00
2018-11-07T14:47:51.934Z,101010.00
2018-11-07T14:50:21.162Z,101016.00
2018-11-07T14:52:50.514Z,101020.00
2018-11-07T14:55:19.866Z,101016.00
2018-11-07T14:57:49.774Z,101023.00
2018-11-07T15:00:19.806Z,101021.00
2018-11-07T15:02:49.928Z,101027.00
2018-11-07T15:05:20.183Z,101033.00
2018-11-07T15:07:49.878Z,101029.00
2018-11-07T15:10:19.994Z,101035.00
2018-11-07T15:12:50.453Z,101034.00
2018-11-07T15:15:20.423Z,101033.00
2018-11-07T15:17:50.409Z,101033.00
2018-11-07T15:20:20.397Z,101036.00
2018-11-07T15:22:50.492Z,101040.00
2018-11-07T15:25:20.593Z,101043.00
2018-11-07T15:27:50.564Z,101047.00
2018-11-07T15:30:20.595Z,101045.00
2018-11-07T15:32:50.594Z,101049.00
2018-11-07T15:35:20.546Z,101051.00
2018-11-07T15:37:50.513Z,101057.00
2018-11-07T15:40:20.609Z,101059.00
2018-11-07T15:42:50.537Z,101059.00
2018-11-07T15:45:20.912Z,101055.00
2018-11-07T15:47:50.636Z,101050.00
2018-11-07T15:50:25.581Z,101047.00
2018-11-07T15:52:54.907Z,101053.00
2018-11-07T15:55:24.597Z,101057.00
2018-11-07T15:57:53.982Z,101061.00
2018-11-07T16:00:23.310Z,101071.00
2018-11-07T16:02:52.661Z,101073.00
2018-11-07T16:05:22.019Z,101079.00
2018-11-07T16:07:51.586Z,101080.00
2018-11-07T16:10:22.560Z,101078.00
2018-11-07T16:12:58.923Z,101077.00
2018-11-07T16:15:28.249Z,101081.00
2018-11-07T16:17:57.582Z,101084.00
2018-11-07T16:20:26.976Z,101090.00
2018-11-07T16:22:56.360Z,101105.00
2018-11-07T16:25:25.746Z,101096.00
2018-11-07T16:27:55.041Z,101108.00
2018-11-07T16:30:24.325Z,101108.00
2018-11-07T16:32:53.720Z,101111.00
2018-11-07T16:35:22.991Z,101112.00
2018-11-07T16:37:52.379Z,101114.00
2018-11-07T16:40:22.254Z,101108.00
2018-11-07T16:42:52.358Z,101108.00
2018-11-07T16:45:22.249Z,101117.00
2018-11-07T16:47:52.296Z,101119.00
2018-11-07T16:50:22.749Z,101126.00
2018-11-07T16:52:52.848Z,101126.00
2018-11-07T16:55:22.659Z,101133.00
2018-11-07T16:57:52.622Z,101130.00
2018-11-07T17:00:23.015Z,101126.00
2018-11-07T17:02:52.932Z,101133.00
2018-11-07T17:05:22.932Z,101133.00
2018-11-07T17:07:52.904Z,101136.00
2018-11-07T17:10:23.105Z,101142.00
2018-11-07T17:12:52.949Z,101146.00
2018-11-07T17:15:22.974Z,101131.00
2018-11-07T17:17:53.191Z,101132.00
2018-11-07T17:20:22.981Z,101143.00
2018-11-07T17:22:53.110Z,101148.00
2018-11-07T17:25:23.109Z,101151.00
2018-11-07T17:27:53.150Z,101159.00
2018-11-07T17:30:23.907Z,101164.00
2018-11-07T17:32:53.258Z,101162.00
2018-11-07T17:35:23.434Z,101164.00
2018-11-07T17:37:53.074Z,101158.00
2018-11-07T17:40:24.057Z,101165.00
2018-11-07T17:42:53.834Z,101157.00
2018-11-07T17:45:23.831Z,101161.00
2018-11-07T17:47:53.668Z,101162.00
2018-11-07T17:50:23.735Z,101137.00
2018-11-07T17:52:53.701Z,101158.00
2018-11-07T17:55:23.631Z,101164.00
2018-11-07T17:57:53.362Z,101167.00
2018-11-07T18:00:27.430Z,101163.00
2018-11-07T18:02:56.779Z,101168.00
2018-11-07T18:05:26.130Z,101167.00
2018-11-07T18:07:55.468Z,101165.00
2018-11-07T18:10:24.949Z,101164.00
2018-11-07T18:12:54.307Z,101162.00
2018-11-07T18:15:23.701Z,101161.00
2018-11-07T18:17:53.544Z,101172.00
2018-11-07T18:20:23.346Z,101171.00
2018-11-07T18:22:53.406Z,101176.00
2018-11-07T18:25:23.544Z,101171.00
2018-11-07T18:27:53.980Z,101177.00
2018-11-07T18:30:23.999Z,101178.00
2018-11-07T18:32:53.729Z,101183.00
2018-11-07T18:35:23.893Z,101180.00
2018-11-07T18:37:53.906Z,101184.00
2018-11-07T18:40:23.857Z,101192.00
2018-11-07T18:42:53.901Z,101190.00
2018-11-07T18:45:23.834Z,101191.00
2018-11-07T18:47:53.960Z,101190.00
2018-11-07T18:50:24.068Z,101190.00
2018-11-07T18:52:53.999Z,101192.00
2018-11-07T18:55:24.275Z,101200.00
2018-11-07T18:57:54.321Z,101202.00
2018-11-07T19:00:24.321Z,101195.00
2018-11-07T19:02:54.396Z,101195.00
2018-11-07T19:05:24.347Z,101195.00
2018-11-07T19:07:54.421Z,101201.00
2018-11-07T19:10:24.258Z,101205.00
2018-11-07T19:12:54.488Z,101207.00
2018-11-07T19:15:24.410Z,101212.00
2018-11-07T19:17:54.497Z,101213.00
2018-11-07T19:20:24.586Z,101214.00
2018-11-07T19:22:54.902Z,101214.00
2018-11-07T19:25:25.061Z,101215.00
2018-11-07T19:27:54.951Z,101217.00
2018-11-07T19:30:25.075Z,101221.00
2018-11-07T19:32:55.024Z,101225.00
2018-11-07T19:35:25.010Z,101227.00
2018-11-07T19:37:54.939Z,101230.00
2018-11-07T19:40:26.205Z,101238.00
2018-11-07T19:42:55.555Z,101237.00
2018-11-07T19:45:25.238Z,101237.00
2018-11-07T19:47:55.305Z,101245.00
2018-11-07T19:50:25.425Z,101251.00
2018-11-07T19:52:55.661Z,101250.00
2018-11-07T19:55:26.108Z,101248.00
2018-11-07T19:58:01.238Z,101249.00
2018-11-07T20:00:30.634Z,101254.00
2018-11-07T20:03:00.094Z,101250.00
2018-11-07T20:05:30.445Z,101258.00
2018-11-07T20:08:00.561Z,101264.00
2018-11-07T20:10:30.126Z,101263.00
2018-11-07T20:12:59.455Z,101267.00
2018-11-07T20:15:31.111Z,101271.00
2018-11-07T20:18:00.656Z,101276.00
2018-11-07T20:20:30.041Z,101277.00
2018-11-07T20:22:59.457Z,101278.00
2018-11-07T20:25:28.820Z,101281.00
2018-11-07T20:27:58.157Z,101284.00
2018-11-07T20:30:27.503Z,101289.00
2018-11-07T20:32:56.834Z,101291.00
2018-11-07T20:35:26.293Z,101290.00
2018-11-07T20:37:55.956Z,101293.00
2018-11-07T20:40:26.001Z,101298.00
2018-11-07T20:42:55.898Z,101299.00
2018-11-07T20:45:26.044Z,101299.00
2018-11-07T20:47:56.058Z,101302.00
2018-11-07T20:50:27.013Z,101302.00
2018-11-07T20:52:56.389Z,101305.00
2018-11-07T20:55:26.153Z,101305.00
2018-11-07T20:57:56.277Z,101306.00
2018-11-07T21:00:26.162Z,101316.00
2018-11-07T21:02:56.239Z,101317.00
2018-11-07T21:05:26.122Z,101318.00
2018-11-07T21:07:56.413Z,101319.00
2018-11-07T21:10:26.335Z,101326.00
2018-11-07T21:12:56.279Z,101328.00
2018-11-07T21:15:26.768Z,101330.00
2018-11-07T21:17:56.783Z,101333.00
2018-11-07T21:20:26.766Z,101331.00
2018-11-07T21:22:56.735Z,101331.00
2018-11-07T21:25:26.865Z,101345.00
2018-11-07T21:27:56.848Z,101341.00
2018-11-07T21:30:27.026Z,101342.00
2018-11-07T21:32:56.960Z,101342.00
2018-11-07T21:35:27.321Z,101347.00
2018-11-07T21:37:57.176Z,101351.00
2018-11-07T21:40:27.227Z,101356.00
2018-11-07T21:42:57.389Z,101356.00
2018-11-07T21:45:27.596Z,101363.00
2018-11-07T21:47:57.605Z,101367.00
2018-11-07T21:50:27.536Z,101365.00
2018-11-07T21:52:57.657Z,101369.00
2018-11-07T21:55:27.925Z,101367.00
2018-11-07T21:57:57.725Z,101369.00
2018-11-07T22:00:27.806Z,101371.00
2018-11-07T22:02:57.873Z,101372.00
2018-11-07T22:05:27.777Z,101374.00
2018-11-07T22:07:57.650Z,101376.00
2018-11-07T22:10:27.775Z,101379.00
2018-11-07T22:12:57.847Z,101380.00
2018-11-07T22:15:27.779Z,101378.00
2018-11-07T22:17:57.778Z,101385.00
2018-11-07T22:20:28.214Z,101381.00
2018-11-07T22:22:58.348Z,101384.00
2018-11-07T22:25:28.302Z,101386.00
2018-11-07T22:27:58.297Z,101392.00
2018-11-07T22:30:28.420Z,101387.00
2018-11-07T22:32:58.316Z,101400.00
2018-11-07T22:35:28.409Z,101403.00
2018-11-07T22:37:58.397Z,101410.00
2018-11-07T22:40:28.902Z,101412.00
2018-11-07T22:42:58.954Z,101414.00
2018-11-07T22:45:29.122Z,101413.00
2018-11-07T22:47:58.989Z,101422.00
2018-11-07T22:50:29.472Z,101427.00
2018-11-07T22:52:59.654Z,101425.00
2018-11-07T22:55:29.598Z,101433.00
2018-11-07T22:57:59.654Z,101427.00
2018-11-07T23:00:34.871Z,101429.00
2018-11-07T23:03:04.319Z,101428.00
2018-11-07T23:05:33.645Z,101431.00
2018-11-07T23:08:03.016Z,101427.00
2018-11-07T23:10:32.369Z,101427.00
2018-11-07T23:13:01.713Z,101427.00
2018-11-07T23:15:36.445Z,101434.00
2018-11-07T23:18:06.191Z,101423.00
2018-11-07T23:20:35.787Z,101429.00
2018-11-07T23:23:05.370Z,101431.00
2018-11-07T23:25:34.737Z,101441.00
2018-11-07T23:28:04.372Z,101445.00
2018-11-07T23:30:33.712Z,101450.00
2018-11-07T23:33:03.089Z,101455.00
2018-11-07T23:35:32.465Z,101454.00
2018-11-07T23:38:01.786Z,101456.00
2018-11-07T23:40:31.134Z,101452.00
2018-11-07T23:43:00.407Z,101452.00
2018-11-07T23:45:30.748Z,101450.00
2018-11-07T23:48:00.768Z,101452.00
2018-11-07T23:50:30.637Z,101456.00
2018-11-07T23:53:00.697Z,101454.00
2018-11-07T23:55:30.667Z,101453.00
2018-11-07T23:58:00.846Z,101450.00
